createdAt,value
2023-01-05T00:01:38.707Z,0.43
2023-01-05T00:04:05.626Z,0.65
2023-01-05T00:06:32.840Z,1.00
2023-01-05T00:09:00.511Z,1.08
2023-01-05T00:11:27.462Z,0.40
2023-01-05T00:13:53.969Z,0.68
2023-01-05T00:16:20.485Z,1.40
2023-01-05T00:18:46.847Z,0.38
2023-01-05T00:21:15.241Z,0.40
2023-01-05T00:23:41.544Z,0.35
2023-01-05T00:26:07.899Z,0.30
2023-01-05T00:28:34.192Z,0.40
2023-01-05T00:31:00.558Z,0.20
2023-01-05T00:33:26.896Z,0.30
2023-01-05T00:35:53.201Z,0.63
2023-01-05T00:38:19.512Z,0.40
2023-01-05T00:40:46.912Z,1.40
2023-01-05T00:43:13.722Z,0.30
2023-01-05T00:45:40.159Z,0.50
2023-01-05T00:48:06.516Z,1.85
2023-01-05T00:50:33.863Z,0.85
2023-01-05T00:53:01.288Z,0.43
2023-01-05T00:55:27.632Z,0.28
2023-01-05T00:57:54.751Z,0.47
2023-01-05T01:00:21.269Z,0.40
2023-01-05T01:02:47.944Z,0.30
2023-01-05T01:05:15.411Z,0.20
2023-01-05T01:07:41.878Z,0.85
2023-01-05T01:10:09.523Z,0.70
2023-01-05T01:12:35.857Z,0.50
2023-01-05T01:15:02.973Z,0.57
2023-01-05T01:17:31.217Z,0.50
2023-01-05T01:19:57.598Z,0.20
2023-01-05T01:22:24.078Z,0.40
2023-01-05T01:24:51.618Z,0.47
2023-01-05T01:27:17.881Z,0.30
2023-01-05T01:29:44.231Z,0.30
2023-01-05T01:32:11.695Z,0.20
2023-01-05T01:34:38.067Z,0.20
2023-01-05T01:37:04.578Z,0.20
2023-01-05T01:39:33.792Z,0.20
2023-01-05T01:42:00.623Z,0.35
2023-01-05T01:44:53.913Z,0.40
2023-01-05T01:47:43.087Z,0.40
2023-01-05T01:50:19.179Z,0.17
2023-01-05T01:52:49.075Z,0.25
2023-01-05T01:55:16.727Z,0.30
2023-01-05T01:57:45.263Z,0.38
2023-01-05T02:00:12.274Z,0.38
2023-01-05T02:02:38.767Z,0.20
2023-01-05T02:05:11.070Z,0.15
2023-01-05T02:07:43.569Z,0.17
2023-01-05T02:10:10.666Z,0.30
2023-01-05T02:12:59.686Z,0.30
2023-01-05T02:15:44.586Z,0.30
2023-01-05T02:18:32.654Z,1.17
2023-01-05T02:21:29.374Z,0.50
2023-01-05T02:24:30.959Z,0.30
2023-01-05T02:27:19.303Z,0.30
2023-01-05T02:30:13.704Z,0.80
2023-01-05T02:33:02.091Z,0.17
2023-01-05T02:35:46.934Z,1.25
2023-01-05T02:38:43.622Z,0.25
2023-01-05T02:41:32.917Z,0.10
2023-01-05T02:44:01.370Z,0.35
2023-01-05T02:46:27.805Z,0.45
2023-01-05T02:48:59.059Z,0.30
2023-01-05T02:51:36.186Z,0.30
2023-01-05T02:54:08.084Z,0.22
2023-01-05T02:56:42.899Z,0.30
2023-01-05T02:59:20.110Z,0.22
2023-01-05T03:01:52.326Z,0.30
2023-01-05T03:04:21.488Z,0.20
2023-01-05T03:07:03.887Z,0.38
2023-01-05T03:09:34.164Z,0.22
2023-01-05T03:12:36.407Z,1.83
2023-01-05T03:15:16.405Z,0.20
2023-01-05T03:17:46.658Z,0.20
2023-01-05T03:20:15.853Z,0.20
2023-01-05T03:22:45.874Z,1.08
2023-01-05T03:25:15.677Z,0.20
2023-01-05T03:27:43.212Z,0.30
2023-01-05T03:30:12.546Z,0.20
2023-01-05T03:32:49.027Z,0.15
2023-01-05T03:35:23.498Z,1.05
2023-01-05T03:38:02.948Z,0.10
2023-01-05T03:40:32.262Z,0.20
2023-01-05T03:42:59.603Z,0.30
2023-01-05T03:45:32.526Z,0.43
2023-01-05T03:48:00.222Z,0.20
2023-01-05T03:50:26.552Z,0.47
2023-01-05T03:52:52.947Z,0.40
2023-01-05T03:55:19.339Z,0.13
2023-01-05T03:57:48.368Z,0.32
2023-01-05T04:00:15.192Z,0.77
2023-01-05T04:02:41.670Z,1.35
2023-01-05T04:05:08.516Z,0.20
2023-01-05T04:07:34.990Z,0.68
2023-01-05T04:10:01.377Z,0.65
2023-01-05T04:12:29.442Z,0.25
2023-01-05T04:14:56.922Z,0.70
2023-01-05T04:17:25.834Z,0.70
2023-01-05T04:19:53.138Z,0.20
2023-01-05T04:22:25.209Z,0.20
2023-01-05T04:24:55.083Z,0.20
2023-01-05T04:27:21.401Z,1.30
2023-01-05T04:29:48.249Z,0.20
2023-01-05T04:32:14.631Z,0.10
2023-01-05T04:34:40.914Z,0.10
2023-01-05T04:37:09.269Z,0.30
2023-01-05T04:39:35.585Z,0.22
2023-01-05T04:42:02.052Z,0.82
2023-01-05T04:44:30.616Z,0.50
2023-01-05T04:46:56.965Z,0.10
2023-01-05T04:49:23.355Z,0.20
2023-01-05T04:51:49.686Z,1.30
2023-01-05T04:54:16.249Z,0.22
2023-01-05T04:56:42.663Z,2.40
2023-01-05T04:59:09.311Z,1.42
2023-01-05T05:01:38.239Z,1.10
2023-01-05T05:04:04.816Z,0.43
2023-01-05T05:06:31.153Z,0.10
2023-01-05T05:08:57.429Z,0.20
2023-01-05T05:11:23.777Z,0.20
2023-01-05T05:13:52.012Z,0.80
2023-01-05T05:16:18.610Z,0.35
2023-01-05T05:18:45.212Z,0.22
2023-01-05T05:21:11.556Z,0.10
2023-01-05T05:23:37.923Z,0.68
2023-01-05T05:26:04.398Z,0.50
2023-01-05T05:28:30.808Z,0.60
2023-01-05T05:30:57.587Z,0.30
2023-01-05T05:33:25.360Z,0.20
2023-01-05T05:35:52.057Z,0.13
2023-01-05T05:38:19.180Z,0.10
2023-01-05T05:40:48.906Z,0.43
2023-01-05T05:43:15.435Z,0.20
2023-01-05T05:45:47.960Z,0.52
2023-01-05T05:48:16.771Z,0.10
2023-01-05T05:50:44.911Z,1.52
2023-01-05T05:53:11.734Z,0.40
2023-01-05T05:55:38.364Z,0.73
2023-01-05T05:58:04.701Z,0.80
2023-01-05T06:00:32.238Z,0.20
2023-01-05T06:02:58.705Z,0.30
2023-01-05T06:05:25.155Z,2.80
2023-01-05T06:07:51.674Z,2.63
2023-01-05T06:10:18.125Z,5.50
2023-01-05T06:12:44.583Z,1.92
2023-01-05T06:15:11.162Z,2.80
2023-01-05T06:17:37.649Z,4.25
2023-01-05T06:20:06.185Z,3.78
2023-01-05T06:22:32.509Z,5.40
2023-01-05T06:24:58.796Z,5.10
2023-01-05T06:27:25.095Z,2.15
2023-01-05T06:29:51.375Z,1.20
2023-01-05T06:32:17.777Z,7.72
2023-01-05T06:34:44.122Z,3.85
2023-01-05T06:37:10.486Z,1.77
2023-01-05T06:39:36.830Z,3.67
2023-01-05T06:42:03.421Z,0.70
2023-01-05T06:44:34.126Z,0.80
2023-01-05T06:47:00.824Z,2.10
2023-01-05T06:49:27.138Z,3.13
2023-01-05T06:51:53.428Z,2.45
2023-01-05T06:54:19.757Z,1.20
2023-01-05T06:56:46.453Z,2.83
2023-01-05T06:59:13.207Z,1.45
2023-01-05T07:01:39.761Z,1.85
2023-01-05T07:04:06.407Z,1.60
2023-01-05T07:06:37.389Z,2.83
2023-01-05T07:11:30.225Z,7.47
2023-01-05T07:13:56.538Z,5.00
2023-01-05T07:16:22.891Z,6.38
2023-01-05T07:18:49.242Z,4.82
2023-01-05T07:21:15.641Z,3.75
2023-01-05T07:23:41.917Z,2.30
2023-01-05T07:26:09.231Z,2.97
2023-01-05T07:28:37.013Z,3.83
2023-01-05T07:31:04.164Z,4.47
2023-01-05T07:33:36.113Z,2.15
2023-01-05T07:36:05.932Z,3.33
2023-01-05T07:38:32.403Z,8.25
2023-01-05T07:41:02.842Z,5.22
2023-01-05T07:43:30.621Z,5.70
2023-01-05T07:46:01.472Z,6.30
2023-01-05T07:51:00.304Z,6.95
2023-01-05T07:53:27.236Z,13.50
2023-01-05T07:56:01.571Z,9.10
2023-01-05T07:58:29.226Z,8.70
2023-01-05T08:00:58.670Z,5.38
2023-01-05T08:03:25.089Z,6.55
2023-01-05T08:05:51.499Z,4.97
2023-01-05T08:08:24.005Z,7.47
2023-01-05T08:10:50.977Z,4.18
2023-01-05T08:13:17.367Z,6.28
2023-01-05T08:15:49.159Z,3.25
2023-01-05T08:18:17.747Z,5.85
2023-01-05T08:20:54.373Z,2.65
2023-01-05T08:23:26.135Z,6.78
2023-01-05T08:25:53.922Z,11.13
2023-01-05T08:28:20.395Z,5.35
2023-01-05T08:30:46.767Z,6.75
2023-01-05T08:33:13.523Z,6.80
2023-01-05T08:35:44.393Z,12.13
2023-01-05T08:40:38.371Z,8.57
2023-01-05T08:43:06.098Z,9.23
2023-01-05T08:45:33.878Z,5.65
2023-01-05T08:48:01.775Z,3.78
2023-01-05T08:50:29.102Z,3.83
2023-01-05T08:52:55.896Z,7.10
2023-01-05T08:55:22.463Z,4.82
2023-01-05T08:57:49.546Z,4.55
2023-01-05T09:00:16.703Z,4.82
2023-01-05T09:02:44.296Z,5.53
2023-01-05T09:05:10.767Z,4.47
2023-01-05T09:07:37.180Z,3.92
2023-01-05T09:10:04.709Z,4.30
2023-01-05T09:12:33.262Z,7.38
2023-01-05T09:14:59.897Z,10.32
2023-01-05T09:17:26.288Z,5.85
2023-01-05T09:19:52.608Z,6.20
2023-01-05T09:22:19.111Z,8.02
2023-01-05T09:24:45.438Z,9.23
2023-01-05T09:27:12.924Z,5.45
2023-01-05T09:29:39.283Z,7.82
2023-01-05T09:32:05.705Z,9.25
2023-01-05T09:34:32.240Z,7.47
2023-01-05T09:36:58.584Z,7.50
2023-01-05T09:39:25.313Z,11.50
2023-01-05T09:41:55.521Z,12.02
2023-01-05T09:44:27.983Z,9.73
2023-01-05T09:46:58.655Z,12.50
2023-01-05T09:49:26.255Z,12.38
2023-01-05T09:51:57.794Z,10.77
2023-01-05T09:54:27.938Z,8.10
2023-01-05T09:57:08.428Z,9.60
2023-01-05T09:59:38.896Z,11.82
2023-01-05T10:02:22.702Z,9.48
2023-01-05T10:04:50.007Z,10.57
2023-01-05T10:07:41.981Z,8.02
2023-01-05T10:10:31.359Z,17.95
2023-01-05T10:13:00.001Z,9.50
2023-01-05T10:15:27.725Z,10.57
2023-01-05T10:17:54.384Z,13.68
2023-01-05T10:20:41.433Z,15.10
2023-01-05T10:23:45.786Z,16.67
2023-01-05T10:26:24.940Z,17.75
2023-01-05T10:29:11.829Z,10.57
2023-01-05T10:31:44.301Z,14.32
2023-01-05T10:34:38.208Z,14.35
2023-01-05T10:37:48.271Z,8.80
2023-01-05T10:40:35.190Z,19.73
2023-01-05T10:43:28.536Z,15.50
2023-01-05T10:46:30.624Z,17.95
2023-01-05T10:48:43.893Z,9.82
2023-01-05T10:51:10.270Z,17.83
2023-01-05T10:53:41.063Z,9.77
2023-01-05T10:56:15.789Z,9.98
2023-01-05T10:58:47.938Z,10.45
2023-01-05T11:01:28.771Z,6.63
2023-01-05T11:06:49.270Z,12.65
2023-01-05T11:09:22.948Z,10.85
2023-01-05T11:11:54.499Z,8.15
2023-01-05T11:14:21.768Z,10.65
2023-01-05T11:16:51.807Z,10.18
2023-01-05T11:19:21.748Z,11.23
2023-01-05T11:21:49.850Z,10.07
2023-01-05T11:24:28.966Z,11.10
2023-01-05T11:27:21.310Z,11.45
2023-01-05T11:30:18.206Z,15.60
2023-01-05T11:32:46.736Z,12.60
2023-01-05T11:35:25.209Z,8.25
2023-01-05T11:37:51.826Z,13.85
2023-01-05T11:40:19.828Z,9.93
2023-01-05T11:42:47.398Z,15.10
2023-01-05T11:45:34.097Z,12.30
2023-01-05T11:48:05.463Z,11.70
2023-01-05T11:50:42.581Z,11.88
2023-01-05T11:53:21.694Z,11.35
2023-01-05T11:55:59.477Z,13.10
2023-01-05T11:58:27.526Z,12.32
2023-01-05T12:01:21.686Z,7.70
2023-01-05T12:04:17.540Z,16.08
2023-01-05T12:07:12.070Z,13.38
2023-01-05T12:10:07.862Z,10.27
2023-01-05T12:12:58.233Z,9.13
2023-01-05T12:15:34.971Z,7.93
2023-01-05T12:18:24.598Z,15.93
2023-01-05T12:21:19.313Z,9.27
2023-01-05T12:24:08.372Z,13.32
2023-01-05T12:26:46.384Z,13.50
2023-01-05T12:36:00.963Z,8.40
2023-01-05T12:38:39.179Z,12.07
2023-01-05T12:41:24.564Z,13.48
2023-01-05T12:44:22.273Z,11.38
2023-01-05T12:47:10.773Z,14.43
2023-01-05T12:49:47.335Z,12.52
2023-01-05T12:52:37.961Z,16.83
2023-01-05T12:55:38.271Z,17.38
2023-01-05T12:58:18.633Z,11.70
2023-01-05T13:00:46.939Z,13.02
2023-01-05T13:03:28.050Z,13.45
2023-01-05T13:06:16.489Z,14.85
2023-01-05T13:08:55.179Z,15.55
2023-01-05T13:11:27.339Z,13.93
2023-01-05T13:14:05.340Z,7.97
2023-01-05T13:17:07.084Z,12.75
2023-01-05T13:19:48.484Z,11.48
2023-01-05T13:22:26.669Z,10.43
2023-01-05T13:25:04.325Z,12.52
2023-01-05T13:27:34.294Z,11.88
2023-01-05T13:30:03.562Z,7.97
2023-01-05T13:32:55.615Z,11.27
2023-01-05T13:35:45.645Z,10.93
2023-01-05T13:38:24.280Z,16.07
2023-01-05T13:41:24.930Z,14.27
2023-01-05T13:44:22.347Z,12.25
2023-01-05T13:47:03.195Z,12.50
2023-01-05T13:50:02.178Z,13.15
2023-01-05T13:52:52.991Z,18.52
2023-01-05T13:55:26.356Z,11.52
2023-01-05T13:57:58.651Z,14.10
2023-01-05T14:00:36.926Z,12.82
2023-01-05T14:03:16.955Z,14.77
2023-01-05T14:05:56.480Z,15.60
2023-01-05T14:08:26.587Z,21.02
2023-01-05T14:11:10.172Z,15.60
2023-01-05T14:13:55.535Z,10.75
2023-01-05T14:16:34.410Z,9.52
2023-01-05T14:19:28.611Z,20.08
2023-01-05T14:21:54.932Z,11.77
2023-01-05T14:24:27.230Z,11.02
2023-01-05T14:27:03.290Z,12.23
2023-01-05T14:29:44.783Z,13.23
2023-01-05T14:32:14.808Z,11.30
2023-01-05T14:34:49.230Z,16.42
2023-01-05T14:37:36.360Z,15.93
2023-01-05T14:40:15.884Z,11.18
2023-01-05T14:42:48.108Z,14.90
2023-01-05T14:45:28.376Z,13.75
2023-01-05T14:48:01.315Z,8.40
2023-01-05T14:50:41.253Z,14.77
2023-01-05T14:53:19.250Z,14.67
2023-01-05T14:55:51.819Z,14.88
2023-01-05T14:58:33.728Z,18.27
2023-01-05T15:01:05.380Z,12.35
2023-01-05T15:03:51.586Z,11.50
2023-01-05T15:06:50.162Z,14.23
2023-01-05T15:09:17.135Z,12.25
2023-01-05T15:12:01.841Z,16.25
2023-01-05T15:14:43.159Z,18.23
2023-01-05T15:17:28.054Z,14.23
2023-01-05T15:20:26.209Z,15.50
2023-01-05T15:23:29.104Z,11.00
2023-01-05T15:26:27.923Z,12.25
2023-01-05T15:29:25.258Z,13.65
2023-01-05T15:32:05.815Z,13.80
2023-01-05T15:35:13.077Z,13.95
2023-01-05T15:37:41.020Z,10.65
2023-01-05T15:40:30.100Z,12.68
2023-01-05T15:43:01.325Z,14.35
2023-01-05T15:45:34.174Z,9.27
2023-01-05T15:48:10.284Z,10.55
2023-01-05T15:50:51.739Z,20.15
2023-01-05T15:53:52.504Z,18.83
2023-01-05T15:56:26.722Z,11.50
2023-01-05T15:58:54.509Z,15.07
2023-01-05T16:01:21.117Z,14.95
2023-01-05T16:03:48.888Z,13.07
2023-01-05T16:06:24.152Z,11.00
2023-01-05T16:08:53.074Z,17.73
2023-01-05T16:11:27.260Z,12.05
2023-01-05T16:14:01.881Z,12.02
2023-01-05T16:16:51.920Z,14.20
2023-01-05T16:19:56.982Z,14.52
2023-01-05T16:22:39.548Z,13.40
2023-01-05T16:25:14.727Z,12.82
2023-01-05T16:27:44.336Z,12.60
2023-01-05T16:30:36.737Z,11.43
2023-01-05T16:33:22.725Z,15.18
2023-01-05T16:36:05.737Z,9.90
2023-01-05T16:38:32.190Z,9.32
2023-01-05T16:41:06.167Z,15.35
2023-01-05T16:43:54.777Z,12.07
2023-01-05T16:46:21.417Z,12.75
2023-01-05T16:48:52.636Z,9.95
2023-01-05T16:51:24.663Z,11.05
2023-01-05T16:53:54.372Z,11.40
2023-01-05T16:56:42.330Z,9.00
2023-01-05T16:59:31.754Z,9.18
2023-01-05T17:01:58.720Z,11.48
2023-01-05T17:04:27.348Z,11.32
2023-01-05T17:06:54.145Z,12.00
2023-01-05T17:09:26.139Z,13.35
2023-01-05T17:11:53.067Z,10.35
2023-01-05T17:14:21.452Z,17.65
2023-01-05T17:16:48.419Z,11.93
2023-01-05T17:19:18.378Z,11.13
2023-01-05T17:21:59.538Z,12.13
2023-01-05T17:24:27.977Z,10.50
2023-01-05T17:26:54.477Z,15.13
2023-01-05T17:29:23.748Z,12.50
2023-01-05T17:31:50.630Z,12.13
2023-01-05T17:34:17.058Z,16.92
2023-01-05T17:36:44.457Z,13.98
2023-01-05T17:39:15.912Z,16.52
2023-01-05T17:41:42.538Z,19.75
2023-01-05T17:44:10.008Z,15.77
2023-01-05T17:46:41.310Z,13.10
2023-01-05T17:49:20.281Z,15.00
2023-01-05T17:51:49.873Z,13.55
2023-01-05T17:54:16.363Z,13.40
2023-01-05T17:56:42.719Z,10.02
2023-01-05T17:59:09.127Z,10.23
2023-01-05T18:01:35.683Z,11.93
2023-01-05T18:04:02.435Z,15.38
2023-01-05T18:06:29.147Z,14.77
2023-01-05T18:08:55.799Z,11.60
2023-01-05T18:11:22.197Z,16.58
2023-01-05T18:13:48.835Z,18.65
2023-01-05T18:16:15.712Z,17.80
2023-01-05T18:18:42.260Z,11.75
2023-01-05T18:21:08.720Z,13.27
2023-01-05T18:23:35.529Z,11.77
2023-01-05T18:26:06.514Z,14.18
2023-01-05T18:28:35.324Z,8.40
2023-01-05T18:31:08.292Z,14.07
2023-01-05T18:33:35.014Z,17.30
2023-01-05T18:38:33.390Z,12.68
2023-01-05T18:40:59.930Z,12.13
2023-01-05T18:43:26.230Z,17.80
2023-01-05T18:45:58.708Z,14.55
2023-01-05T18:48:27.175Z,16.42
2023-01-05T18:50:53.446Z,13.15
2023-01-05T18:53:22.388Z,17.30
2023-01-05T18:55:49.517Z,15.95
2023-01-05T18:58:16.138Z,14.70
2023-01-05T19:00:44.486Z,11.43
2023-01-05T19:03:12.634Z,17.15
2023-01-05T19:05:40.419Z,19.60
2023-01-05T19:08:08.157Z,16.45
2023-01-05T19:10:34.871Z,14.88
2023-01-05T19:13:01.264Z,10.18
2023-01-05T19:15:31.647Z,13.93
2023-01-05T19:17:58.209Z,12.80
2023-01-05T19:20:34.320Z,11.52
2023-01-05T19:23:00.833Z,16.33
2023-01-05T19:25:27.948Z,12.10
2023-01-05T19:27:54.265Z,13.30
2023-01-05T19:30:20.639Z,17.58
2023-01-05T19:32:46.985Z,15.45
2023-01-05T19:35:14.296Z,15.65
2023-01-05T19:37:41.241Z,13.48
2023-01-05T19:40:08.836Z,17.38
2023-01-05T19:42:35.742Z,15.98
2023-01-05T19:45:02.152Z,12.80
2023-01-05T19:47:30.867Z,18.42
2023-01-05T19:49:57.287Z,20.63
2023-01-05T19:52:23.617Z,18.38
2023-01-05T19:54:49.978Z,19.70
2023-01-05T19:57:16.310Z,21.83
2023-01-05T19:59:42.702Z,20.90
2023-01-05T20:02:10.023Z,13.93
2023-01-05T20:04:36.519Z,17.20
2023-01-05T20:07:04.325Z,17.30
2023-01-05T20:09:31.302Z,14.65
2023-01-05T20:12:09.174Z,17.10
2023-01-05T20:14:40.239Z,14.48
2023-01-05T20:17:08.984Z,17.00
2023-01-05T20:19:36.850Z,18.52
2023-01-05T20:22:05.743Z,18.00
2023-01-05T20:24:33.686Z,19.48
2023-01-05T20:27:03.330Z,17.17
2023-01-05T20:29:30.508Z,21.23
2023-01-05T20:32:00.675Z,19.50
2023-01-05T20:34:29.345Z,19.98
2023-01-05T20:36:55.696Z,21.35
2023-01-05T20:39:22.487Z,18.75
2023-01-05T20:41:51.232Z,21.13
2023-01-05T20:44:23.638Z,16.17
2023-01-05T20:46:51.703Z,20.02
2023-01-05T20:49:18.186Z,18.48
2023-01-05T20:51:44.904Z,18.73
2023-01-05T20:54:12.455Z,20.10
2023-01-05T20:56:40.993Z,23.80
2023-01-05T20:59:16.765Z,17.08
2023-01-05T21:01:43.827Z,22.75
2023-01-05T21:04:11.150Z,21.23
2023-01-05T21:06:37.910Z,18.45
2023-01-05T21:09:05.412Z,18.92
2023-01-05T21:11:32.075Z,14.40
2023-01-05T21:13:58.719Z,15.93
2023-01-05T21:16:35.043Z,16.83
2023-01-05T21:19:01.895Z,23.00
2023-01-05T21:21:29.819Z,19.35
2023-01-05T21:23:58.798Z,19.92
2023-01-05T21:26:25.250Z,18.95
2023-01-05T21:28:53.275Z,19.20
2023-01-05T21:31:23.063Z,22.85
2023-01-05T21:33:51.327Z,18.63
2023-01-05T21:36:23.592Z,20.35
2023-01-05T21:39:00.962Z,27.15
2023-01-05T21:41:29.649Z,26.85
2023-01-05T21:43:55.986Z,20.98
2023-01-05T21:46:22.325Z,26.35
2023-01-05T21:48:48.851Z,21.55
2023-01-05T21:51:15.201Z,25.58
2023-01-05T21:53:41.874Z,21.88
2023-01-05T21:56:14.309Z,22.55
2023-01-05T21:58:40.629Z,24.80
2023-01-05T22:01:07.305Z,23.70
2023-01-05T22:03:33.958Z,38.72
2023-01-05T22:06:00.355Z,124.97
2023-01-05T22:08:26.847Z,27.13
2023-01-05T22:10:54.927Z,22.35
2023-01-05T22:13:22.262Z,28.10
2023-01-05T22:15:48.630Z,37.92
2023-01-05T22:18:15.470Z,28.30
2023-01-05T22:20:41.891Z,22.65
2023-01-05T22:23:08.223Z,25.30
2023-01-05T22:25:35.828Z,27.80
2023-01-05T22:28:03.391Z,19.98
2023-01-05T22:30:29.791Z,31.25
2023-01-05T22:32:56.218Z,29.95
2023-01-05T22:35:23.131Z,27.92
2023-01-05T22:37:49.425Z,28.45
2023-01-05T22:40:16.028Z,27.10
2023-01-05T22:42:43.498Z,29.63
2023-01-05T22:45:10.014Z,24.70
2023-01-05T22:47:36.533Z,26.75
2023-01-05T22:50:04.287Z,26.30
2023-01-05T22:52:30.881Z,25.52
2023-01-05T22:54:57.334Z,30.33
2023-01-05T22:57:23.987Z,25.90
2023-01-05T22:59:50.334Z,26.02
2023-01-05T23:02:16.846Z,27.30
2023-01-05T23:04:43.392Z,26.55
2023-01-05T23:07:10.051Z,23.10
2023-01-05T23:09:36.473Z,31.42
2023-01-05T23:12:02.807Z,26.27
2023-01-05T23:14:29.330Z,26.70
2023-01-05T23:16:55.981Z,22.15
2023-01-05T23:19:22.354Z,25.52
2023-01-05T23:21:48.706Z,23.92
2023-01-05T23:24:15.272Z,26.92
2023-01-05T23:26:41.661Z,25.15
2023-01-05T23:29:08.075Z,22.67
2023-01-05T23:31:34.490Z,27.73
2023-01-05T23:34:00.920Z,33.80
2023-01-05T23:36:27.933Z,40.20
2023-01-05T23:38:54.449Z,38.67
2023-01-05T23:41:20.928Z,40.58
2023-01-05T23:43:47.657Z,38.33
2023-01-05T23:46:17.291Z,33.78
2023-01-05T23:48:44.163Z,31.35
2023-01-05T23:51:11.664Z,26.38
2023-01-05T23:53:38.311Z,30.10
2023-01-05T23:56:10.465Z,28.95
2023-01-05T23:58:37.222Z,20.13
